createdAt,value
2022-07-29T00:02:39.091Z,25.40
2022-07-29T00:05:30.281Z,25.30
2022-07-29T00:08:21.520Z,25.30
2022-07-29T00:11:12.308Z,25.20
2022-07-29T00:16:46.679Z,25.30
2022-07-29T00:19:45.678Z,25.30
2022-07-29T00:22:38.394Z,25.20
2022-07-29T00:25:29.724Z,25.30
2022-07-29T00:28:23.237Z,25.30
2022-07-29T00:31:14.572Z,25.30
2022-07-29T00:34:07.495Z,25.30
2022-07-29T00:36:59.043Z,25.30
2022-07-29T00:39:50.687Z,25.20
2022-07-29T00:42:49.717Z,25.20
2022-07-29T00:45:40.653Z,25.10
2022-07-29T00:48:31.731Z,25.10
2022-07-29T00:51:24.077Z,25.00
2022-07-29T00:54:16.091Z,24.70
2022-07-29T00:57:09.495Z,24.60
2022-07-29T01:00:00.390Z,24.50
2022-07-29T01:02:57.531Z,24.60
2022-07-29T01:05:51.889Z,24.70
2022-07-29T01:11:24.243Z,24.80
2022-07-29T01:14:16.309Z,24.70
2022-07-29T01:17:10.525Z,24.60
2022-07-29T01:20:07.143Z,24.60
2022-07-29T01:29:36.163Z,24.60
2022-07-29T01:32:28.714Z,24.60
2022-07-29T01:35:21.945Z,24.50
2022-07-29T01:38:16.412Z,24.50
2022-07-29T01:41:10.753Z,24.50
2022-07-29T01:44:15.174Z,24.50
2022-07-29T01:47:09.676Z,24.40
2022-07-29T01:52:45.827Z,24.10
2022-07-29T01:55:39.818Z,24.10
2022-07-29T01:58:33.843Z,24.10
2022-07-29T02:01:28.501Z,24.00
2022-07-29T02:07:01.517Z,24.10
2022-07-29T02:09:54.213Z,24.10
2022-07-29T02:12:50.767Z,24.10
2022-07-29T02:15:41.614Z,24.20
2022-07-29T02:21:20.325Z,24.10
2022-07-29T02:24:13.983Z,24.10
2022-07-29T02:27:06.260Z,23.90
2022-07-29T02:32:39.409Z,23.80
2022-07-29T02:35:34.681Z,23.80
2022-07-29T02:38:45.527Z,23.70
2022-07-29T02:41:41.630Z,23.70
2022-07-29T02:44:34.872Z,23.70
2022-07-29T02:47:29.165Z,23.50
2022-07-29T02:50:23.497Z,23.50
2022-07-29T02:53:18.989Z,23.40
2022-07-29T02:56:14.001Z,23.30
2022-07-29T03:01:45.782Z,23.30
2022-07-29T03:07:17.762Z,23.20
2022-07-29T03:10:11.010Z,23.20
2022-07-29T03:13:04.694Z,23.20
2022-07-29T03:15:56.064Z,23.20
2022-07-29T03:21:26.044Z,23.20
2022-07-29T03:24:36.964Z,23.10
2022-07-29T03:27:29.095Z,23.10
2022-07-29T03:30:21.927Z,23.10
2022-07-29T03:33:13.928Z,23.00
2022-07-29T03:36:05.506Z,23.00
2022-07-29T03:38:57.204Z,23.00
2022-07-29T03:41:52.015Z,23.00
2022-07-29T03:44:46.481Z,22.90
2022-07-29T03:47:50.175Z,22.80
2022-07-29T03:50:35.992Z,22.80
2022-07-29T03:53:27.120Z,22.80
2022-07-29T03:56:21.012Z,22.80
2022-07-29T03:59:13.153Z,22.80
2022-07-29T04:02:06.601Z,22.80
2022-07-29T04:04:58.304Z,22.60
2022-07-29T04:07:50.325Z,22.70
2022-07-29T04:10:41.926Z,22.70
2022-07-29T04:16:14.102Z,22.70
2022-07-29T04:21:44.827Z,22.90
2022-07-29T04:24:36.755Z,23.00
2022-07-29T04:27:28.044Z,23.00
2022-07-29T04:30:19.628Z,22.90
2022-07-29T04:33:11.007Z,22.90
2022-07-29T04:36:02.101Z,22.90
2022-07-29T04:41:33.841Z,23.10
2022-07-29T04:44:28.507Z,23.20
2022-07-29T04:47:19.177Z,23.20
2022-07-29T04:50:12.164Z,23.10
2022-07-29T04:53:04.771Z,23.00
2022-07-29T04:55:55.797Z,23.00
2022-07-29T04:58:46.650Z,23.00
2022-07-29T05:01:37.601Z,23.00
2022-07-29T05:04:28.790Z,23.10
2022-07-29T05:07:19.832Z,23.10
2022-07-29T05:10:12.853Z,23.20
2022-07-29T05:13:04.211Z,23.30
2022-07-29T05:15:56.757Z,23.30
2022-07-29T05:18:48.080Z,23.40
2022-07-29T05:21:43.330Z,23.40
2022-07-29T05:24:35.060Z,23.40
2022-07-29T05:27:26.110Z,23.40
2022-07-29T05:30:19.668Z,23.30
2022-07-29T05:33:34.693Z,23.30
2022-07-29T05:36:03.952Z,23.40
2022-07-29T05:38:55.645Z,23.40
2022-07-29T05:41:51.744Z,23.40
2022-07-29T05:44:41.709Z,23.40
2022-07-29T05:47:32.967Z,23.30
2022-07-29T05:50:24.475Z,23.20
2022-07-29T05:53:19.699Z,23.30
2022-07-29T05:58:47.608Z,23.50
2022-07-29T06:01:40.535Z,23.50
2022-07-29T06:04:31.641Z,23.60
2022-07-29T06:07:23.155Z,23.70
2022-07-29T06:10:14.760Z,23.70
2022-07-29T06:13:06.371Z,23.60
2022-07-29T06:15:57.854Z,23.60
2022-07-29T06:21:31.533Z,23.80
2022-07-29T06:24:28.855Z,23.80
2022-07-29T06:27:20.266Z,23.90
2022-07-29T06:30:13.558Z,24.00
2022-07-29T06:33:04.968Z,24.10
2022-07-29T06:35:56.315Z,24.40
2022-07-29T06:41:31.185Z,24.90
2022-07-29T06:44:22.340Z,25.00
2022-07-29T06:47:13.362Z,25.10
2022-07-29T06:50:07.985Z,25.20
2022-07-29T06:52:59.858Z,25.30
2022-07-29T06:58:34.011Z,25.40
2022-07-29T07:04:05.006Z,25.50
2022-07-29T07:06:56.698Z,25.50
2022-07-29T07:12:27.107Z,25.40
2022-07-29T07:15:39.243Z,25.30
2022-07-29T07:18:20.018Z,25.30
2022-07-29T07:21:11.264Z,25.50
2022-07-29T07:26:43.051Z,25.80
2022-07-29T07:29:35.342Z,25.80
2022-07-29T07:32:26.386Z,25.80
2022-07-29T07:35:17.565Z,25.80
2022-07-29T07:38:08.879Z,25.80
2022-07-29T07:41:00.674Z,25.80
2022-07-29T07:46:33.279Z,25.90
2022-07-29T07:49:24.884Z,25.90
2022-07-29T07:52:16.819Z,26.00
2022-07-29T07:55:09.766Z,26.00
2022-07-29T07:58:01.357Z,26.00
2022-07-29T08:00:59.333Z,26.10
2022-07-29T08:06:39.573Z,26.00
2022-07-29T08:12:12.085Z,26.10
2022-07-29T08:15:03.704Z,26.10
2022-07-29T08:17:58.135Z,26.30
2022-07-29T08:20:56.017Z,26.30
2022-07-29T08:26:27.726Z,26.40
2022-07-29T08:29:20.089Z,26.40
2022-07-29T08:32:11.742Z,26.30
2022-07-29T08:35:03.213Z,26.20
2022-07-29T08:37:54.986Z,26.10
2022-07-29T08:41:04.262Z,26.00
2022-07-29T08:43:55.843Z,25.70
2022-07-29T08:46:47.737Z,25.50
2022-07-29T08:49:40.224Z,25.30
2022-07-29T08:52:33.638Z,25.30
2022-07-29T08:55:25.290Z,25.20
2022-07-29T08:58:17.743Z,25.10
2022-07-29T09:01:12.446Z,25.10
2022-07-29T09:04:14.483Z,24.80
2022-07-29T09:07:07.896Z,24.40
2022-07-29T09:09:59.275Z,24.20
2022-07-29T09:12:50.749Z,24.00
2022-07-29T09:15:42.169Z,23.80
2022-07-29T09:18:41.625Z,23.70
2022-07-29T09:21:52.812Z,23.50
2022-07-29T09:24:46.155Z,23.20
2022-07-29T09:27:37.740Z,23.00
2022-07-29T09:30:31.646Z,22.70
2022-07-29T09:33:22.686Z,22.70
2022-07-29T09:36:14.046Z,22.40
2022-07-29T09:39:06.202Z,21.90
2022-07-29T09:41:59.322Z,21.60
2022-07-29T09:44:51.538Z,21.30
2022-07-29T09:47:50.360Z,21.20
2022-07-29T09:50:45.831Z,20.90
2022-07-29T09:53:44.537Z,20.90
2022-07-29T09:56:45.495Z,20.80
2022-07-29T09:59:36.869Z,20.80
2022-07-29T10:02:34.848Z,20.80
2022-07-29T10:05:36.229Z,20.70
2022-07-29T10:08:28.257Z,20.80
2022-07-29T10:11:20.848Z,20.80
2022-07-29T10:14:12.475Z,20.70
2022-07-29T10:20:11.530Z,20.80
2022-07-29T10:23:01.862Z,20.70
2022-07-29T10:25:53.966Z,20.80
2022-07-29T10:28:45.472Z,20.80
2022-07-29T10:31:56.427Z,20.80
2022-07-29T10:35:00.500Z,20.90
2022-07-29T10:38:04.567Z,21.00
2022-07-29T10:41:29.013Z,21.00
2022-07-29T10:44:26.697Z,21.00
2022-07-29T10:47:25.994Z,21.10
2022-07-29T10:50:17.302Z,21.20
2022-07-29T10:55:59.566Z,21.50
2022-07-29T10:59:01.974Z,21.60
2022-07-29T11:02:15.983Z,21.70
2022-07-29T11:05:04.546Z,21.60
2022-07-29T11:08:25.925Z,21.60
2022-07-29T11:11:51.725Z,21.50
2022-07-29T11:15:03.761Z,21.70
2022-07-29T11:20:51.522Z,22.10
2022-07-29T11:26:24.788Z,22.30
2022-07-29T11:29:23.304Z,22.50
2022-07-29T11:32:18.395Z,22.60
2022-07-29T11:35:22.309Z,22.60
2022-07-29T11:41:32.706Z,22.20
2022-07-29T11:44:30.490Z,22.40
2022-07-29T11:47:24.007Z,22.70
2022-07-29T11:50:18.294Z,22.70
2022-07-29T11:55:58.669Z,22.50
2022-07-29T11:58:50.677Z,22.60
2022-07-29T12:02:18.452Z,22.70
2022-07-29T12:04:52.872Z,22.80
2022-07-29T12:07:43.939Z,22.90
2022-07-29T12:10:37.504Z,23.00
2022-07-29T12:16:07.709Z,23.20
2022-07-29T12:21:56.830Z,23.60
2022-07-29T12:24:48.435Z,23.90
2022-07-29T12:27:40.286Z,24.10
2022-07-29T12:30:43.162Z,24.30
2022-07-29T12:36:17.876Z,24.30
2022-07-29T12:42:04.447Z,24.30
2022-07-29T12:44:53.062Z,24.30
2022-07-29T12:47:55.254Z,24.10
2022-07-29T12:51:03.134Z,24.00
2022-07-29T12:56:55.582Z,24.20
2022-07-29T12:59:46.734Z,24.10
2022-07-29T13:02:38.172Z,24.30
2022-07-29T13:05:48.553Z,24.20
2022-07-29T13:11:33.287Z,24.70
2022-07-29T13:14:35.947Z,24.90
2022-07-29T13:17:32.659Z,24.80
2022-07-29T13:20:23.033Z,25.00
2022-07-29T13:23:14.313Z,25.10
2022-07-29T13:26:09.697Z,25.10
2022-07-29T13:29:04.877Z,25.10
2022-07-29T13:32:05.211Z,25.20
2022-07-29T13:34:56.793Z,25.30
2022-07-29T13:37:48.113Z,25.30
2022-07-29T13:40:39.201Z,25.30
2022-07-29T13:43:31.423Z,25.50
2022-07-29T13:46:22.678Z,25.70
2022-07-29T13:49:24.707Z,26.10
2022-07-29T13:52:17.419Z,26.20
2022-07-29T13:55:19.855Z,26.40
2022-07-29T14:01:05.653Z,26.80
2022-07-29T14:03:56.490Z,27.60
2022-07-29T14:06:47.568Z,28.60
2022-07-29T14:09:41.602Z,29.00
2022-07-29T14:12:34.107Z,29.40
2022-07-29T14:15:26.013Z,29.90
2022-07-29T14:21:03.624Z,29.10
2022-07-29T14:23:57.483Z,29.10
2022-07-29T14:26:49.136Z,29.90
2022-07-29T14:29:40.283Z,29.50
2022-07-29T14:32:31.565Z,29.40
2022-07-29T14:38:01.966Z,29.80
2022-07-29T14:40:55.789Z,30.80
2022-07-29T14:46:29.616Z,31.60
2022-07-29T14:49:20.943Z,32.10
2022-07-29T14:52:12.196Z,32.80
2022-07-29T14:55:03.444Z,32.50
2022-07-29T14:58:03.077Z,32.50
2022-07-29T15:03:29.064Z,33.40
2022-07-29T15:06:21.530Z,33.80
2022-07-29T15:09:12.989Z,34.40
2022-07-29T15:12:05.633Z,35.40
2022-07-29T15:15:05.507Z,35.00
2022-07-29T15:17:57.018Z,34.30
2022-07-29T15:20:57.144Z,35.10
2022-07-29T15:23:51.508Z,35.50
2022-07-29T15:26:43.523Z,36.20
2022-07-29T15:32:15.005Z,37.20
2022-07-29T15:35:07.694Z,37.20
2022-07-29T15:37:58.651Z,38.30
2022-07-29T15:40:50.905Z,39.00
2022-07-29T15:43:45.325Z,38.90
2022-07-29T15:46:54.309Z,37.40
2022-07-29T15:49:48.536Z,37.70
2022-07-29T15:52:38.066Z,38.60
2022-07-29T15:55:31.148Z,39.20
2022-07-29T16:01:01.792Z,40.30
2022-07-29T16:03:53.179Z,39.30
2022-07-29T16:06:44.500Z,39.50
2022-07-29T16:12:16.067Z,38.60
2022-07-29T16:15:10.360Z,38.80
2022-07-29T16:18:01.989Z,39.30
2022-07-29T16:20:58.174Z,39.60
2022-07-29T16:23:49.353Z,39.90
2022-07-29T16:26:40.462Z,39.70
2022-07-29T16:29:31.640Z,38.70
2022-07-29T16:32:23.274Z,38.60
2022-07-29T16:37:53.866Z,36.80
2022-07-29T16:41:00.464Z,36.40
2022-07-29T16:43:55.217Z,37.40
2022-07-29T16:46:47.201Z,38.70
2022-07-29T16:49:39.969Z,38.30
2022-07-29T16:52:31.020Z,39.70
2022-07-29T16:55:26.306Z,40.30
2022-07-29T17:00:56.879Z,39.70
2022-07-29T17:06:32.902Z,36.50
2022-07-29T17:09:23.977Z,35.70
2022-07-29T17:12:15.071Z,35.10
2022-07-29T17:15:07.096Z,35.20
2022-07-29T17:17:59.033Z,37.00
2022-07-29T17:20:50.825Z,37.80
2022-07-29T17:23:42.037Z,37.70
2022-07-29T17:26:33.218Z,37.70
2022-07-29T17:29:24.535Z,37.10
2022-07-29T17:32:16.312Z,36.20
2022-07-29T17:35:30.523Z,35.20
2022-07-29T17:41:08.788Z,32.60
2022-07-29T17:46:40.638Z,31.40
2022-07-29T17:49:32.150Z,31.00
2022-07-29T17:52:30.680Z,30.50
2022-07-29T17:55:22.355Z,30.20
2022-07-29T17:58:13.775Z,29.90
2022-07-29T18:03:44.509Z,29.40
2022-07-29T18:06:35.576Z,29.20
2022-07-29T18:09:26.801Z,28.90
2022-07-29T18:12:18.204Z,28.70
2022-07-29T18:15:10.892Z,28.20
2022-07-29T18:18:01.962Z,28.00
2022-07-29T18:20:53.133Z,27.80
2022-07-29T18:23:44.369Z,27.80
2022-07-29T18:26:35.502Z,27.60
2022-07-29T18:29:28.085Z,27.60
2022-07-29T18:32:20.603Z,27.50
2022-07-29T18:38:02.068Z,27.20
2022-07-29T18:40:46.479Z,27.10
2022-07-29T18:43:37.658Z,27.00
2022-07-29T18:46:29.025Z,26.90
2022-07-29T18:49:20.353Z,26.80
2022-07-29T18:52:12.490Z,26.60
2022-07-29T18:55:04.769Z,26.50
2022-07-29T18:57:57.079Z,26.40
2022-07-29T19:00:49.129Z,26.40
2022-07-29T19:06:24.046Z,26.30
2022-07-29T19:09:12.503Z,26.30
2022-07-29T19:12:03.855Z,26.30
2022-07-29T19:14:55.092Z,26.20
2022-07-29T19:17:46.456Z,26.20
2022-07-29T19:20:38.517Z,26.20
2022-07-29T19:26:29.656Z,25.70
2022-07-29T19:29:20.851Z,25.60
2022-07-29T19:32:12.134Z,25.40
2022-07-29T19:35:21.011Z,25.40
2022-07-29T19:40:58.501Z,25.30
2022-07-29T19:46:32.636Z,25.30
2022-07-29T19:52:06.012Z,25.20
2022-07-29T19:54:57.247Z,25.00
2022-07-29T19:57:56.521Z,25.00
2022-07-29T20:00:48.046Z,24.90
2022-07-29T20:03:40.559Z,24.80
2022-07-29T20:06:31.385Z,24.80
2022-07-29T20:09:22.593Z,24.70
2022-07-29T20:12:13.876Z,24.70
2022-07-29T20:15:16.376Z,24.60
2022-07-29T20:20:49.794Z,24.50
2022-07-29T20:23:40.840Z,24.50
2022-07-29T20:26:31.856Z,24.50
2022-07-29T20:29:22.911Z,24.50
2022-07-29T20:32:14.005Z,24.60
2022-07-29T20:38:05.101Z,24.70
2022-07-29T20:40:58.066Z,24.40
2022-07-29T20:46:36.908Z,24.30
2022-07-29T20:49:28.196Z,24.40
2022-07-29T20:52:19.839Z,24.40
2022-07-29T20:55:18.918Z,24.40
2022-07-29T21:00:57.582Z,24.40
2022-07-29T21:06:27.440Z,24.30
2022-07-29T21:09:18.967Z,24.40
2022-07-29T21:12:11.808Z,24.30
2022-07-29T21:17:42.693Z,24.30
2022-07-29T21:20:33.851Z,24.30
2022-07-29T21:26:04.005Z,24.20
2022-07-29T21:31:34.131Z,24.00
2022-07-29T21:34:27.630Z,23.90
2022-07-29T21:37:20.109Z,23.90
2022-07-29T21:40:13.927Z,23.70
2022-07-29T21:43:04.960Z,23.60
2022-07-29T21:45:56.466Z,23.60
2022-07-29T21:48:47.617Z,23.50
2022-07-29T21:51:48.069Z,23.50
2022-07-29T21:54:40.784Z,23.50
2022-07-29T21:57:33.091Z,23.40
2022-07-29T22:00:25.624Z,23.20
2022-07-29T22:05:56.285Z,23.20
2022-07-29T22:11:25.495Z,23.10
2022-07-29T22:14:18.276Z,23.00
2022-07-29T22:17:09.617Z,22.90
2022-07-29T22:20:00.799Z,22.80
2022-07-29T22:22:52.104Z,22.70
2022-07-29T22:25:43.410Z,22.60
2022-07-29T22:31:13.975Z,22.70
2022-07-29T22:34:06.992Z,22.70
2022-07-29T22:36:58.580Z,22.70
2022-07-29T22:42:30.576Z,22.60
2022-07-29T22:48:01.331Z,22.60
2022-07-29T22:50:55.260Z,22.60
2022-07-29T22:53:50.384Z,22.60
2022-07-29T22:56:41.657Z,22.50
2022-07-29T22:59:33.224Z,22.50
2022-07-29T23:02:27.159Z,22.50
2022-07-29T23:05:24.356Z,22.50
2022-07-29T23:08:15.484Z,22.40
2022-07-29T23:13:47.165Z,22.40
2022-07-29T23:16:38.158Z,22.40
2022-07-29T23:19:32.874Z,22.20
2022-07-29T23:22:24.397Z,22.00
2022-07-29T23:25:15.931Z,22.00
2022-07-29T23:28:11.673Z,22.00
2022-07-29T23:31:01.982Z,22.10
2022-07-29T23:33:53.608Z,22.20
2022-07-29T23:36:45.137Z,22.20
2022-07-29T23:39:36.301Z,22.20
2022-07-29T23:42:27.702Z,22.20
2022-07-29T23:45:19.250Z,22.20
2022-07-29T23:50:50.091Z,22.20
2022-07-29T23:56:20.858Z,22.20
2022-07-29T23:59:12.173Z,22.20
